createdAt,value
2022-10-17T00:04:30.413Z,21.60
2022-10-17T00:09:32.187Z,22.00
2022-10-17T00:14:34.671Z,24.70
2022-10-17T00:19:36.443Z,27.20
2022-10-17T00:24:38.196Z,25.40
2022-10-17T00:29:40.029Z,24.10
2022-10-17T00:34:42.285Z,25.40
2022-10-17T00:39:44.047Z,25.80
2022-10-17T00:44:48.687Z,24.80
2022-10-17T00:49:52.815Z,29.30
2022-10-17T00:54:58.646Z,27.10
2022-10-17T01:00:04.776Z,27.40
2022-10-17T01:05:08.400Z,24.30
2022-10-17T01:10:10.958Z,25.40
2022-10-17T01:15:45.340Z,18.20
2022-10-17T01:21:02.332Z,24.30
2022-10-17T01:26:24.100Z,24.10
2022-10-17T01:31:34.793Z,20.50
2022-10-17T01:36:37.103Z,23.40
2022-10-17T01:41:42.819Z,22.40
2022-10-17T01:46:49.817Z,23.20
2022-10-17T01:52:01.170Z,27.00
2022-10-17T01:57:08.038Z,22.50
2022-10-17T02:02:14.840Z,22.70
2022-10-17T02:07:16.718Z,19.40
2022-10-17T02:12:37.480Z,21.10
2022-10-17T02:17:52.670Z,23.30
2022-10-17T02:23:22.135Z,25.60
2022-10-17T02:28:45.424Z,28.30
2022-10-17T02:33:55.916Z,22.70
2022-10-17T02:39:00.702Z,21.60
2022-10-17T02:44:04.981Z,19.90
2022-10-17T02:49:30.043Z,20.60
2022-10-17T02:54:41.690Z,21.50
2022-10-17T02:59:45.760Z,20.10
2022-10-17T03:04:47.874Z,19.90
2022-10-17T03:09:51.079Z,23.00
2022-10-17T03:14:53.098Z,16.00
2022-10-17T03:19:55.200Z,22.40
2022-10-17T03:24:57.119Z,19.80
2022-10-17T03:29:59.182Z,20.90
2022-10-17T03:35:03.118Z,15.90
2022-10-17T03:40:05.547Z,21.10
2022-10-17T03:45:08.381Z,19.90
2022-10-17T03:50:10.775Z,19.70
2022-10-17T03:55:13.370Z,21.90
2022-10-17T04:00:15.766Z,20.70
2022-10-17T04:05:17.510Z,19.20
2022-10-17T04:10:19.563Z,20.00
2022-10-17T04:15:22.347Z,20.80
2022-10-17T04:20:24.383Z,24.10
2022-10-17T04:25:26.193Z,23.60
2022-10-17T04:30:29.013Z,19.30
2022-10-17T04:35:30.861Z,20.90
2022-10-17T04:40:36.955Z,26.20
2022-10-17T04:45:39.019Z,15.40
2022-10-17T04:50:41.388Z,18.80
2022-10-17T04:56:07.324Z,21.60
2022-10-17T05:01:20.760Z,22.00
2022-10-17T05:06:29.503Z,19.80
2022-10-17T05:12:10.476Z,20.80
2022-10-17T05:17:14.683Z,22.70
2022-10-17T05:22:16.576Z,24.90
2022-10-17T05:27:18.613Z,24.50
2022-10-17T05:32:20.605Z,23.40
2022-10-17T05:37:23.114Z,19.60
2022-10-17T05:42:26.857Z,20.60
2022-10-17T05:47:29.329Z,22.70
2022-10-17T05:52:31.695Z,17.30
2022-10-17T05:57:40.587Z,19.20
2022-10-17T06:02:46.900Z,22.50
2022-10-17T06:07:52.554Z,15.90
2022-10-17T06:12:56.754Z,20.30
2022-10-17T06:17:58.893Z,20.10
2022-10-17T06:23:00.838Z,16.10
2022-10-17T06:28:32.544Z,19.20
2022-10-17T06:33:34.965Z,18.40
2022-10-17T06:38:37.808Z,18.90
2022-10-17T06:43:48.065Z,21.50
2022-10-17T06:49:10.004Z,20.00
2022-10-17T06:54:17.453Z,16.80
2022-10-17T06:59:42.561Z,14.30
2022-10-17T07:04:48.101Z,17.70
2022-10-17T07:09:51.490Z,13.30
2022-10-17T07:14:54.813Z,14.60
2022-10-17T07:19:57.555Z,14.10
2022-10-17T07:24:59.776Z,18.80
2022-10-17T07:30:06.242Z,12.50
2022-10-17T07:35:14.648Z,14.00
2022-10-17T07:40:16.731Z,11.90
2022-10-17T07:45:19.163Z,14.20
2022-10-17T07:50:21.987Z,15.00
2022-10-17T07:55:23.719Z,11.70
2022-10-17T08:00:25.424Z,11.60
2022-10-17T08:05:27.534Z,13.40
2022-10-17T08:10:29.882Z,10.60
2022-10-17T08:15:32.171Z,13.30
2022-10-17T08:20:34.407Z,11.30
2022-10-17T08:25:39.909Z,12.30
2022-10-17T08:30:41.723Z,12.80
2022-10-17T08:35:43.453Z,13.20
2022-10-17T08:40:49.568Z,13.00
2022-10-17T08:46:03.723Z,14.60
2022-10-17T08:51:29.639Z,10.00
2022-10-17T08:56:49.895Z,11.60
2022-10-17T09:02:15.507Z,12.00
2022-10-17T09:07:37.474Z,9.40
2022-10-17T09:12:50.093Z,9.20
2022-10-17T09:18:22.043Z,12.90
2022-10-17T09:23:30.635Z,9.30
2022-10-17T09:28:38.795Z,9.00
2022-10-17T09:33:54.309Z,12.90
2022-10-17T09:39:12.966Z,13.40
2022-10-17T09:44:22.488Z,9.40
2022-10-17T09:49:33.280Z,13.20
2022-10-17T09:54:50.254Z,7.30
2022-10-17T10:00:06.969Z,14.80
2022-10-17T10:05:20.177Z,10.80
2022-10-17T10:10:28.754Z,9.60
2022-10-17T10:15:34.038Z,11.00
2022-10-17T10:20:41.854Z,10.40
2022-10-17T10:26:37.209Z,10.60
2022-10-17T10:31:40.351Z,7.90
2022-10-17T10:36:45.218Z,11.90
2022-10-17T10:41:50.110Z,26.90
2022-10-17T10:47:29.157Z,18.80
2022-10-17T10:52:39.012Z,15.70
2022-10-17T10:57:44.318Z,10.10
2022-10-17T11:03:01.693Z,10.10
2022-10-17T11:08:34.714Z,31.40
2022-10-17T11:13:42.632Z,13.90
2022-10-17T11:19:01.747Z,8.50
2022-10-17T11:24:21.759Z,11.70
2022-10-17T11:29:29.417Z,10.20
2022-10-17T11:34:36.481Z,8.40
2022-10-17T11:44:50.701Z,11.70
2022-10-17T11:51:59.705Z,10.70
2022-10-17T11:55:24.775Z,8.60
2022-10-17T12:00:29.512Z,8.20
2022-10-17T12:05:59.305Z,9.20
2022-10-17T12:11:08.482Z,7.60
2022-10-17T12:16:19.824Z,8.90
2022-10-17T12:21:22.493Z,14.50
2022-10-17T12:26:27.691Z,11.90
2022-10-17T12:31:33.925Z,9.50
2022-10-17T12:36:38.039Z,10.70
2022-10-17T12:41:39.799Z,11.50
2022-10-17T12:46:42.400Z,9.30
2022-10-17T12:52:06.383Z,8.90
2022-10-17T12:57:43.779Z,10.10
2022-10-17T13:02:46.394Z,11.50
2022-10-17T13:07:49.616Z,15.40
2022-10-17T13:12:59.626Z,12.00
2022-10-17T13:18:02.170Z,7.30
2022-10-17T13:23:04.197Z,8.10
2022-10-17T13:28:12.793Z,8.60
2022-10-17T13:33:38.985Z,6.50
2022-10-17T13:38:42.697Z,12.40
2022-10-17T13:43:44.939Z,8.70
2022-10-17T13:48:46.791Z,11.60
2022-10-17T13:53:48.572Z,9.10
2022-10-17T13:58:53.486Z,7.70
2022-10-17T14:04:07.645Z,10.10
2022-10-17T14:09:30.217Z,14.40
2022-10-17T14:14:46.078Z,8.90
2022-10-17T14:20:14.180Z,9.60
2022-10-17T14:25:37.493Z,8.30
2022-10-17T14:30:56.141Z,7.60
2022-10-17T14:36:01.396Z,7.90
2022-10-17T14:46:36.810Z,11.30
2022-10-17T14:51:50.386Z,8.20
2022-10-17T14:56:59.296Z,23.20
2022-10-17T15:02:01.011Z,12.60
2022-10-17T15:07:02.804Z,8.80
2022-10-17T15:12:11.665Z,7.60
2022-10-17T15:17:20.832Z,12.60
2022-10-17T15:22:23.991Z,7.20
2022-10-17T15:27:26.519Z,10.90
2022-10-17T15:32:28.333Z,10.00
2022-10-17T15:37:33.902Z,5.70
2022-10-17T15:42:35.721Z,8.50
2022-10-17T15:47:38.687Z,6.60
2022-10-17T15:52:41.529Z,7.90
2022-10-17T15:57:45.335Z,11.50
2022-10-17T16:02:47.826Z,12.80
2022-10-17T16:07:49.769Z,12.00
2022-10-17T16:12:51.610Z,10.80
2022-10-17T16:17:55.968Z,7.20
2022-10-17T16:23:00.599Z,13.10
2022-10-17T16:28:02.375Z,11.10
2022-10-17T16:33:04.212Z,9.40
2022-10-17T16:38:07.753Z,14.60
2022-10-17T16:43:13.016Z,13.60
2022-10-17T16:48:14.826Z,12.40
2022-10-17T16:53:16.525Z,10.30
2022-10-17T16:58:18.463Z,10.60
2022-10-17T17:03:20.262Z,10.80
2022-10-17T17:08:22.051Z,8.90
2022-10-17T17:13:23.855Z,14.30
2022-10-17T17:18:25.676Z,21.70
2022-10-17T17:23:28.373Z,23.60
2022-10-17T17:28:32.126Z,21.60
2022-10-17T17:33:33.899Z,26.30
2022-10-17T17:38:36.836Z,22.70
2022-10-17T17:43:38.601Z,17.30
2022-10-17T17:48:41.602Z,21.20
2022-10-17T17:53:43.922Z,23.70
2022-10-17T17:58:47.740Z,21.70
2022-10-17T18:03:51.173Z,20.80
2022-10-17T18:08:57.786Z,22.70
2022-10-17T18:14:02.017Z,24.50
2022-10-17T18:19:06.635Z,21.00
2022-10-17T18:24:08.811Z,21.90
2022-10-17T18:29:13.042Z,25.80
2022-10-17T18:34:14.917Z,22.60
2022-10-17T18:39:17.562Z,24.20
2022-10-17T18:44:19.540Z,29.90
2022-10-17T18:49:23.241Z,25.50
2022-10-17T18:54:25.045Z,23.80
2022-10-17T18:59:26.902Z,27.30
2022-10-17T19:04:28.644Z,25.40
2022-10-17T19:09:30.481Z,25.10
2022-10-17T19:14:32.396Z,27.10
2022-10-17T19:19:34.235Z,24.60
2022-10-17T19:24:35.995Z,28.60
2022-10-17T19:29:37.929Z,25.20
2022-10-17T19:34:39.711Z,21.80
2022-10-17T19:39:41.466Z,26.50
2022-10-17T19:44:43.312Z,19.80
2022-10-17T19:49:49.756Z,21.60
2022-10-17T19:54:51.912Z,21.40
2022-10-17T19:59:55.967Z,19.50
2022-10-17T20:05:13.935Z,20.90
2022-10-17T20:10:20.698Z,22.90
2022-10-17T20:15:22.501Z,22.90
2022-10-17T20:20:24.874Z,18.30
2022-10-17T20:25:26.958Z,21.30
2022-10-17T20:30:28.815Z,18.00
2022-10-17T20:35:30.604Z,19.10
2022-10-17T20:40:35.816Z,19.40
2022-10-17T20:45:50.994Z,19.40
2022-10-17T20:50:54.276Z,19.90
2022-10-17T20:56:04.842Z,23.10
2022-10-17T21:01:09.002Z,19.00
2022-10-17T21:06:11.467Z,20.60
2022-10-17T21:11:24.657Z,19.40
2022-10-17T21:16:30.697Z,19.70
2022-10-17T21:21:35.041Z,21.30
2022-10-17T21:26:38.097Z,19.80
2022-10-17T21:31:42.640Z,16.90
2022-10-17T21:36:45.215Z,17.20
2022-10-17T21:41:47.012Z,17.40
2022-10-17T21:46:49.819Z,16.40
2022-10-17T21:51:52.656Z,16.00
2022-10-17T21:56:54.297Z,15.80
2022-10-17T22:01:56.032Z,18.10
2022-10-17T22:06:57.709Z,16.70
2022-10-17T22:11:59.351Z,14.40
2022-10-17T22:17:01.632Z,12.00
2022-10-17T22:22:03.247Z,15.90
2022-10-17T22:27:04.916Z,12.00
2022-10-17T22:32:06.563Z,12.40
2022-10-17T22:37:08.215Z,14.90
2022-10-17T22:42:09.912Z,15.10
2022-10-17T22:47:11.597Z,12.40
2022-10-17T22:52:13.285Z,15.30
2022-10-17T22:57:15.153Z,11.30
2022-10-17T23:02:16.830Z,16.90
2022-10-17T23:07:18.510Z,12.40
2022-10-17T23:12:23.824Z,15.50
2022-10-17T23:17:25.519Z,16.60
2022-10-17T23:22:27.209Z,12.60
2022-10-17T23:32:36.218Z,12.90
2022-10-17T23:37:37.964Z,13.20
2022-10-17T23:42:39.656Z,14.30
2022-10-17T23:47:46.234Z,11.10
2022-10-17T23:52:47.966Z,14.60
2022-10-17T23:57:49.596Z,13.20
